Time;durP1;ratioP1;P1;durP2;ratioP2;P2;SDS_P1;SDS_P2;PMS_P1;PMS_P2;Temp;Humidity;BMP_temperature;BMP_pressure;BME280_temperature;BME280_humidity;BME280_pressure;Samples;Min_cycle;Max_cycle;Signal;HPM_P1;HPM_P2
2020/12/24 00:00:48;;;;;;;13.20;6.50;;;5.80;99.90;;;;;;5030809;28;21081;-78
2020/12/24 00:03:15;;;;;;;8.13;5.47;;;5.80;99.90;;;;;;5014085;28;20478;-78
2020/12/24 00:05:43;;;;;;;9.70;5.03;;;5.80;99.90;;;;;;5029265;28;20529;-78
2020/12/24 00:08:10;;;;;;;7.67;4.70;;;5.70;99.90;;;;;;5035867;28;20244;-78
2020/12/24 00:10:39;;;;;;;7.50;4.40;;;5.70;99.90;;;;;;5032677;28;20482;-78
2020/12/24 00:13:07;;;;;;;7.87;4.17;;;5.70;99.90;;;;;;5011642;28;20486;-78
2020/12/24 00:15:35;;;;;;;9.50;4.90;;;5.70;99.90;;;;;;5028232;28;20236;-78
2020/12/24 00:18:16;;;;;;;8.70;4.33;;;5.60;99.90;;;;;;5033383;28;20509;-80
2020/12/24 00:20:44;;;;;;;9.43;4.50;;;5.60;99.90;;;;;;5030852;28;20485;-78
2020/12/24 00:23:11;;;;;;;6.47;4.00;;;5.60;99.90;;;;;;5031922;28;20486;-78
2020/12/24 00:25:40;;;;;;;7.37;4.17;;;5.60;99.90;;;;;;5032372;28;20553;-78
2020/12/24 00:28:07;;;;;;;6.97;3.90;;;5.60;99.90;;;;;;5031054;28;20493;-79
2020/12/24 00:30:35;;;;;;;6.87;3.90;;;5.60;99.90;;;;;;5031369;28;20493;-80
2020/12/24 00:33:02;;;;;;;5.17;3.27;;;5.60;99.90;;;;;;5033545;28;20510;-79
2020/12/24 00:35:30;;;;;;;6.17;3.40;;;5.50;99.90;;;;;;5035256;28;21071;-80
2020/12/24 00:37:57;;;;;;;5.93;3.30;;;5.50;99.90;;;;;;5017580;28;20481;-80
2020/12/24 00:40:25;;;;;;;5.30;3.27;;;5.50;99.90;;;;;;5019317;28;20570;-80
2020/12/24 00:42:53;;;;;;;8.20;3.23;;;5.50;99.90;;;;;;5010987;28;20550;-79
2020/12/24 00:45:21;;;;;;;4.87;3.23;;;5.50;99.90;;;;;;5012139;28;21321;-80
2020/12/24 00:47:50;;;;;;;5.07;3.20;;;5.50;99.90;;;;;;5012019;28;20494;-79
2020/12/24 00:50:18;;;;;;;6.47;3.10;;;5.50;99.90;;;;;;5009969;28;20511;-79
2020/12/24 00:52:46;;;;;;;8.73;4.10;;;5.50;99.90;;;;;;5009858;28;21215;-79
2020/12/24 00:55:13;;;;;;;7.70;3.20;;;5.50;99.90;;;;;;5006881;28;20488;-79
2020/12/24 00:57:41;;;;;;;5.90;3.10;;;5.40;99.90;;;;;;5004209;28;20483;-79
2020/12/24 01:00:10;;;;;;;7.27;3.07;;;5.40;99.90;;;;;;5010145;28;20488;-80
2020/12/24 01:02:38;;;;;;;5.83;3.00;;;5.50;99.90;;;;;;5010988;28;20479;-80
2020/12/24 01:05:07;;;;;;;4.37;3.00;;;5.40;99.90;;;;;;5010174;28;20489;-80
2020/12/24 01:07:35;;;;;;;6.17;3.33;;;5.40;99.90;;;;;;5008952;28;20518;-80
2020/12/24 01:10:05;;;;;;;6.37;3.00;;;5.40;99.90;;;;;;4991995;28;20485;-80
2020/12/24 01:12:34;;;;;;;4.90;2.90;;;5.40;99.90;;;;;;4990572;28;20485;-80
2020/12/24 01:15:05;;;;;;;5.30;3.40;;;5.30;99.90;;;;;;5007608;28;20937;-79
2020/12/24 01:17:35;;;;;;;5.93;2.90;;;5.30;99.90;;;;;;5008181;28;20870;-80
2020/12/24 01:20:04;;;;;;;4.93;3.00;;;5.30;99.90;;;;;;5008466;28;20491;-81
2020/12/24 01:22:32;;;;;;;6.43;2.83;;;5.30;99.90;;;;;;5009195;28;21060;-79
2020/12/24 01:25:00;;;;;;;4.17;2.73;;;5.40;99.90;;;;;;5010716;28;20492;-79
2020/12/24 01:27:27;;;;;;;6.40;3.17;;;5.30;99.90;;;;;;5011401;28;20542;-79
2020/12/24 01:29:55;;;;;;;4.57;2.40;;;5.30;99.90;;;;;;5009419;28;20516;-79
2020/12/24 01:32:22;;;;;;;7.10;2.80;;;5.30;99.90;;;;;;5011085;28;20515;-79
2020/12/24 01:34:50;;;;;;;6.10;2.43;;;5.30;99.90;;;;;;5010632;28;20498;-80
2020/12/24 01:37:18;;;;;;;4.40;2.80;;;5.20;99.90;;;;;;5025132;28;21056;-81
2020/12/24 01:39:47;;;;;;;3.43;2.40;;;5.20;99.90;;;;;;5028929;28;20491;-80
2020/12/24 01:42:17;;;;;;;4.87;2.37;;;5.20;99.90;;;;;;5009511;28;20309;-79
2020/12/24 01:44:46;;;;;;;3.50;2.10;;;5.20;99.90;;;;;;5030473;28;20326;-79
2020/12/24 01:47:14;;;;;;;4.30;1.93;;;5.10;99.90;;;;;;5029827;28;20492;-80
2020/12/24 01:49:42;;;;;;;4.27;2.13;;;5.10;99.90;;;;;;5011583;28;20556;-79
2020/12/24 01:52:29;;;;;;;5.87;2.47;;;5.10;99.90;;;;;;5030483;28;20546;-79
2020/12/24 01:54:58;;;;;;;4.30;2.00;;;5.00;99.90;;;;;;5030555;28;20479;-80
2020/12/24 01:57:26;;;;;;;3.90;1.70;;;5.10;99.90;;;;;;5030475;28;20240;-79
2020/12/24 01:59:56;;;;;;;5.40;2.00;;;5.00;99.90;;;;;;5029487;28;20540;-79
2020/12/24 02:02:24;;;;;;;3.27;1.93;;;5.00;99.90;;;;;;5028918;28;20557;-80
2020/12/24 02:04:51;;;;;;;2.87;2.00;;;5.00;99.90;;;;;;5030219;28;20491;-79
2020/12/24 02:07:19;;;;;;;2.60;1.93;;;4.90;99.90;;;;;;5012116;28;20544;-80
2020/12/24 02:09:48;;;;;;;3.30;2.20;;;5.00;99.90;;;;;;5028641;28;20848;-79
2020/12/24 02:12:16;;;;;;;5.67;1.90;;;5.00;99.90;;;;;;5031891;28;20546;-79
2020/12/24 02:14:44;;;;;;;3.57;1.97;;;4.90;99.90;;;;;;5024884;28;20515;-79
2020/12/24 02:17:12;;;;;;;3.60;1.97;;;4.90;99.90;;;;;;5025847;28;20975;-79
2020/12/24 02:19:40;;;;;;;3.93;1.77;;;4.90;99.90;;;;;;5024668;28;20505;-79
2020/12/24 02:22:09;;;;;;;1.93;1.80;;;4.90;99.90;;;;;;5029708;28;20482;-79
2020/12/24 02:24:41;;;;;;;3.43;2.03;;;4.90;99.90;;;;;;5009929;28;20999;-79
2020/12/24 02:27:09;;;;;;;3.17;2.10;;;4.90;99.90;;;;;;5013908;28;20494;-79
2020/12/24 02:29:36;;;;;;;3.07;2.27;;;4.90;99.90;;;;;;5029023;28;20483;-80
2020/12/24 02:32:03;;;;;;;3.33;1.97;;;4.80;99.90;;;;;;5029870;28;20472;-80
2020/12/24 02:34:31;;;;;;;2.87;2.30;;;4.80;99.90;;;;;;5029777;28;20559;-79
2020/12/24 02:36:58;;;;;;;2.50;2.23;;;4.70;99.90;;;;;;5029218;28;20487;-79
2020/12/24 02:39:26;;;;;;;3.97;2.00;;;4.70;99.90;;;;;;5029145;28;20471;-79
2020/12/24 02:41:54;;;;;;;5.00;2.50;;;4.70;99.90;;;;;;5029178;28;20475;-79
2020/12/24 02:44:21;;;;;;;4.73;2.50;;;4.70;99.90;;;;;;5029561;28;20566;-79
2020/12/24 02:46:51;;;;;;;3.83;2.47;;;4.60;99.90;;;;;;5037945;28;20486;-79
2020/12/24 02:49:18;;;;;;;4.87;2.50;;;4.60;99.90;;;;;;5029339;28;20474;-79
2020/12/24 02:51:46;;;;;;;2.90;2.60;;;4.60;99.90;;;;;;5011035;28;20884;-79
2020/12/24 02:54:13;;;;;;;4.80;3.00;;;4.60;99.90;;;;;;5011611;28;20482;-79
2020/12/24 02:56:41;;;;;;;4.63;2.93;;;4.60;99.90;;;;;;5029228;28;20493;-79
2020/12/24 02:59:10;;;;;;;3.57;2.67;;;4.60;99.90;;;;;;5028747;28;20546;-79
2020/12/24 03:01:37;;;;;;;4.77;3.20;;;4.60;99.90;;;;;;5028714;28;20473;-79
2020/12/24 03:04:04;;;;;;;4.07;3.03;;;4.50;99.90;;;;;;5029525;28;20518;-79
2020/12/24 03:06:32;;;;;;;5.40;2.60;;;4.50;99.90;;;;;;5028872;28;20483;-79
2020/12/24 03:08:59;;;;;;;4.33;2.70;;;4.50;99.90;;;;;;5025270;28;20565;-79
2020/12/24 03:11:28;;;;;;;4.60;2.70;;;4.50;99.90;;;;;;5032997;28;20506;-79
2020/12/24 03:13:56;;;;;;;2.67;2.47;;;4.50;99.90;;;;;;5014190;28;20470;-79
2020/12/24 03:16:24;;;;;;;4.80;2.77;;;4.50;99.90;;;;;;5033267;28;20568;-79
2020/12/24 03:18:51;;;;;;;3.83;2.97;;;4.50;99.90;;;;;;5029516;28;21303;-79
2020/12/24 03:21:19;;;;;;;4.33;2.60;;;4.50;99.90;;;;;;5032682;28;20474;-79
2020/12/24 03:23:46;;;;;;;5.13;2.97;;;4.50;99.90;;;;;;5019868;28;20484;-79
2020/12/24 03:26:14;;;;;;;3.67;3.03;;;4.50;99.90;;;;;;5013221;28;20493;-79
2020/12/24 03:28:41;;;;;;;5.00;3.37;;;4.40;99.90;;;;;;5028232;28;20572;-79
2020/12/24 03:31:10;;;;;;;5.47;2.80;;;4.40;99.90;;;;;;5030993;28;20559;-79
2020/12/24 03:33:38;;;;;;;3.47;2.90;;;4.40;99.90;;;;;;5032602;28;20492;-79
2020/12/24 03:36:07;;;;;;;3.50;2.80;;;4.40;99.90;;;;;;5030870;28;20479;-79
2020/12/24 03:38:34;;;;;;;4.20;2.70;;;4.40;99.90;;;;;;5016518;28;20560;-79
2020/12/24 03:41:02;;;;;;;4.27;2.87;;;4.40;99.90;;;;;;5031734;28;20500;-79
2020/12/24 03:43:29;;;;;;;5.10;2.80;;;4.40;99.90;;;;;;5033382;28;20483;-79
2020/12/24 03:45:56;;;;;;;6.03;2.60;;;4.40;99.90;;;;;;5032840;28;20944;-79
2020/12/24 03:48:25;;;;;;;3.27;2.60;;;4.30;99.90;;;;;;5014650;28;20482;-79
2020/12/24 03:50:52;;;;;;;3.43;2.80;;;4.40;99.90;;;;;;5032286;28;20478;-79
2020/12/24 03:53:20;;;;;;;4.23;2.63;;;4.30;99.90;;;;;;5032549;28;20498;-80
2020/12/24 03:55:47;;;;;;;3.90;3.20;;;4.40;99.90;;;;;;5032445;28;21057;-80
2020/12/24 03:58:15;;;;;;;5.93;3.20;;;4.30;99.90;;;;;;5027601;28;20468;-80
2020/12/24 04:00:42;;;;;;;5.47;3.33;;;4.30;99.90;;;;;;5011395;28;20570;-79
2020/12/24 04:03:09;;;;;;;4.17;3.77;;;4.30;99.90;;;;;;5012577;28;20512;-79
2020/12/24 04:05:38;;;;;;;4.20;3.10;;;4.30;99.90;;;;;;5028883;28;20481;-79
2020/12/24 04:08:07;;;;;;;4.43;3.30;;;4.30;99.90;;;;;;5033213;28;20474;-79
2020/12/24 04:10:34;;;;;;;4.77;3.10;;;4.30;99.90;;;;;;5023098;28;20476;-80
2020/12/24 04:13:02;;;;;;;3.77;2.90;;;4.30;99.90;;;;;;5030190;28;21057;-79
2020/12/24 04:15:29;;;;;;;3.70;3.23;;;4.20;99.90;;;;;;5030958;28;21063;-80
2020/12/24 04:17:56;;;;;;;3.50;2.63;;;4.20;99.90;;;;;;5032388;28;20471;-79
2020/12/24 04:20:24;;;;;;;4.87;3.37;;;4.10;99.90;;;;;;5012457;28;20467;-79
2020/12/24 04:22:52;;;;;;;4.07;3.00;;;4.10;99.90;;;;;;5032180;28;20479;-79
2020/12/24 04:25:19;;;;;;;3.63;2.93;;;4.10;99.90;;;;;;5032332;28;20558;-79
2020/12/24 04:27:47;;;;;;;2.63;2.33;;;4.00;99.90;;;;;;5031805;28;20972;-79
2020/12/24 04:30:14;;;;;;;2.43;2.17;;;4.00;99.90;;;;;;5013756;28;20503;-79
2020/12/24 04:32:42;;;;;;;2.30;1.60;;;3.90;99.90;;;;;;5030920;28;20551;-79
2020/12/24 04:35:09;;;;;;;3.00;1.47;;;3.90;99.90;;;;;;5032848;28;21114;-79
2020/12/24 04:37:37;;;;;;;1.77;1.10;;;3.80;99.90;;;;;;5010377;28;20530;-79
2020/12/24 04:40:05;;;;;;;2.73;1.20;;;3.70;99.90;;;;;;5011676;28;20492;-79
2020/12/24 04:42:33;;;;;;;2.03;1.00;;;3.60;99.90;;;;;;5011108;28;20480;-81
2020/12/24 04:45:00;;;;;;;1.37;1.10;;;3.60;99.90;;;;;;5010330;28;20486;-79
2020/12/24 04:47:29;;;;;;;1.57;1.20;;;3.50;99.90;;;;;;5011057;28;20557;-79
2020/12/24 04:49:59;;;;;;;1.23;1.13;;;3.50;99.90;;;;;;5011753;28;20517;-79
2020/12/24 04:52:26;;;;;;;1.93;1.40;;;3.40;99.90;;;;;;5011228;28;20489;-79
2020/12/24 04:54:57;;;;;;;1.40;1.30;;;3.40;99.90;;;;;;5011672;28;20532;-79
2020/12/24 04:57:28;;;;;;;1.90;1.40;;;3.50;99.90;;;;;;5010757;28;20472;-79
2020/12/24 05:00:00;;;;;;;1.53;1.43;;;3.40;99.90;;;;;;5011283;28;20591;-79
2020/12/24 05:02:27;;;;;;;1.57;1.40;;;3.50;99.90;;;;;;5011368;28;20587;-79
2020/12/24 05:04:55;;;;;;;1.47;1.30;;;3.50;99.90;;;;;;5011211;28;20496;-79
2020/12/24 05:07:22;;;;;;;2.17;1.50;;;3.50;99.90;;;;;;5010864;28;20490;-79
2020/12/24 05:09:50;;;;;;;2.10;1.80;;;3.50;99.90;;;;;;5010950;28;20878;-79
2020/12/24 05:12:29;;;;;;;2.60;1.50;;;3.50;99.90;;;;;;5011013;28;20490;-79
2020/12/24 05:14:57;;;;;;;1.67;1.47;;;3.50;99.90;;;;;;5012006;28;20483;-80
2020/12/24 05:17:26;;;;;;;2.30;1.30;;;3.50;99.90;;;;;;5026431;28;20472;-79
2020/12/24 05:20:01;;;;;;;2.23;1.60;;;3.50;99.90;;;;;;5010634;28;20478;-79
2020/12/24 05:22:29;;;;;;;1.97;1.50;;;3.50;99.90;;;;;;5010295;28;20859;-79
2020/12/24 05:25:10;;;;;;;1.37;1.27;;;3.50;99.90;;;;;;5005412;28;20467;-79
2020/12/24 05:27:39;;;;;;;2.43;1.60;;;3.50;99.90;;;;;;5002269;28;20490;-79
2020/12/24 05:30:07;;;;;;;1.60;1.50;;;3.50;99.90;;;;;;4996877;28;21178;-79
2020/12/24 05:32:35;;;;;;;2.17;1.97;;;3.50;99.90;;;;;;5006649;28;20887;-79
2020/12/24 05:35:08;;;;;;;2.50;1.70;;;3.50;99.90;;;;;;5024119;28;20478;-79
2020/12/24 05:37:36;;;;;;;3.67;1.60;;;3.50;99.90;;;;;;5024686;28;20545;-79
2020/12/24 05:40:22;;;;;;;1.63;1.47;;;3.50;99.90;;;;;;5030428;28;20487;-80
2020/12/24 05:42:53;;;;;;;2.57;1.70;;;3.50;99.90;;;;;;5012363;28;20971;-79
2020/12/24 05:45:23;;;;;;;1.57;1.43;;;3.50;99.90;;;;;;5030956;28;20492;-79
2020/12/24 05:48:11;;;;;;;1.60;1.37;;;3.50;99.90;;;;;;5030719;28;20481;-79
2020/12/24 05:50:40;;;;;;;2.93;1.30;;;3.50;99.90;;;;;;5029617;28;20487;-79
2020/12/24 05:53:10;;;;;;;2.43;1.40;;;3.50;99.90;;;;;;5024241;28;20999;-79
2020/12/24 05:55:40;;;;;;;2.53;1.50;;;3.50;99.90;;;;;;5009308;28;20490;-79
2020/12/24 05:58:09;;;;;;;1.67;1.50;;;3.50;99.90;;;;;;5010754;28;20485;-79
2020/12/24 06:00:39;;;;;;;2.53;1.57;;;3.60;99.90;;;;;;5009854;28;20506;-80
2020/12/24 06:03:12;;;;;;;2.30;1.77;;;3.60;99.90;;;;;;5032684;28;20525;-79
2020/12/24 06:05:57;;;;;;;2.67;1.40;;;3.60;99.90;;;;;;5025194;28;20487;-79
2020/12/24 06:08:27;;;;;;;1.53;1.30;;;3.60;99.90;;;;;;5021423;28;20483;-79
2020/12/24 06:11:06;;;;;;;1.43;1.33;;;3.60;99.90;;;;;;5027255;28;21168;-79
2020/12/24 06:13:41;;;;;;;3.83;1.60;;;3.60;99.90;;;;;;5027493;28;20537;-79
2020/12/24 06:16:10;;;;;;;2.37;1.50;;;3.70;99.90;;;;;;5010381;28;20595;-79
2020/12/24 06:18:42;;;;;;;2.33;2.03;;;3.70;99.90;;;;;;5007252;28;21028;-79
2020/12/24 06:21:16;;;;;;;2.27;1.80;;;3.70;99.90;;;;;;5014675;28;20554;-79
2020/12/24 06:23:50;;;;;;;2.47;2.20;;;3.70;99.90;;;;;;5029346;28;20482;-79
2020/12/24 06:26:22;;;;;;;5.80;2.90;;;3.70;99.90;;;;;;5027024;28;20480;-79
2020/12/24 06:28:58;;;;;;;3.57;2.57;;;3.70;99.90;;;;;;5023639;28;20491;-79
2020/12/24 06:31:26;;;;;;;4.33;3.30;;;3.70;99.90;;;;;;5024910;28;20979;-79
2020/12/24 06:33:54;;;;;;;5.57;3.47;;;3.70;99.90;;;;;;5029133;28;20898;-79
2020/12/24 06:36:33;;;;;;;4.77;3.40;;;3.70;99.90;;;;;;5029913;28;20508;-79
2020/12/24 06:39:01;;;;;;;4.87;3.57;;;3.70;99.90;;;;;;5029039;28;20515;-79
2020/12/24 06:41:36;;;;;;;8.27;4.30;;;3.70;99.90;;;;;;5029400;28;20475;-79
2020/12/24 06:44:05;;;;;;;7.00;4.10;;;3.80;99.90;;;;;;5010831;28;20977;-79
2020/12/24 06:46:56;;;;;;;7.70;4.60;;;3.80;99.90;;;;;;5027988;28;20876;-81
2020/12/24 06:49:30;;;;;;;8.00;4.70;;;3.80;99.90;;;;;;5017703;28;20471;-79
2020/12/24 06:51:57;;;;;;;7.50;4.60;;;3.80;99.90;;;;;;5009711;28;20564;-79
2020/12/24 06:54:26;;;;;;;8.10;4.00;;;3.80;99.90;;;;;;5012488;28;20537;-79
2020/12/24 06:57:24;;;;;;;6.30;3.73;;;3.80;99.90;;;;;;5005790;28;20471;-79
2020/12/24 07:00:20;;;;;;;5.63;3.93;;;3.90;99.90;;;;;;5006301;28;20496;-79
2020/12/24 07:02:49;;;;;;;5.03;3.23;;;3.90;99.90;;;;;;5025774;28;20529;-79
2020/12/24 07:05:47;;;;;;;6.47;4.00;;;3.90;99.90;;;;;;5027271;28;20889;-81
2020/12/24 07:08:47;;;;;;;7.27;3.60;;;3.90;99.90;;;;;;5015043;28;20479;-79
2020/12/24 07:11:42;;;;;;;8.17;3.13;;;3.90;99.90;;;;;;5009356;28;20485;-79
2020/12/24 07:14:27;;;;;;;6.37;3.20;;;3.90;99.90;;;;;;5026918;28;20474;-79
2020/12/24 07:16:56;;;;;;;8.50;3.23;;;3.90;99.90;;;;;;5012199;28;20531;-78
2020/12/24 07:19:25;;;;;;;6.03;3.43;;;3.90;99.90;;;;;;5027524;28;21026;-78
2020/12/24 07:21:53;;;;;;;6.83;3.97;;;3.90;99.90;;;;;;5021034;28;20545;-78
2020/12/24 07:24:28;;;;;;;6.23;3.17;;;3.90;99.90;;;;;;5022148;28;20570;-78
2020/12/24 07:26:57;;;;;;;7.30;3.53;;;3.90;99.90;;;;;;5030341;28;21053;-79
2020/12/24 07:29:27;;;;;;;6.90;4.00;;;3.90;99.90;;;;;;5027068;28;20958;-78
2020/12/24 07:32:00;;;;;;;6.23;3.87;;;4.00;99.90;;;;;;5024795;28;20515;-78
2020/12/24 07:34:31;;;;;;;6.03;4.13;;;4.00;99.90;;;;;;5017780;28;20851;-79
2020/12/24 07:36:58;;;;;;;8.63;4.93;;;4.00;99.90;;;;;;5008979;28;20482;-79
2020/12/24 07:39:26;;;;;;;10.00;5.53;;;4.00;99.90;;;;;;4999126;28;20459;-78
2020/12/24 07:41:54;;;;;;;10.03;5.90;;;4.00;99.90;;;;;;5027811;28;20472;-78
2020/12/24 07:44:22;;;;;;;11.57;6.30;;;4.00;99.90;;;;;;5028415;28;21038;-80
2020/12/24 07:46:51;;;;;;;9.73;6.53;;;4.00;99.90;;;;;;5028269;28;20545;-80
2020/12/24 07:49:20;;;;;;;11.67;6.77;;;4.00;99.90;;;;;;5027956;28;20563;-79
2020/12/24 07:51:55;;;;;;;11.70;6.57;;;4.00;99.90;;;;;;5027698;28;20479;-79
2020/12/24 07:54:25;;;;;;;7.57;5.23;;;4.00;99.90;;;;;;5005162;28;20991;-80
2020/12/24 07:56:53;;;;;;;7.93;4.90;;;4.00;99.90;;;;;;5012296;28;20902;-79
2020/12/24 07:59:21;;;;;;;9.27;4.07;;;4.00;99.90;;;;;;5031061;28;23275;-80
2020/12/24 08:01:49;;;;;;;8.10;4.37;;;4.00;99.90;;;;;;5010736;28;20514;-80
2020/12/24 08:04:17;;;;;;;6.87;3.40;;;4.00;99.90;;;;;;5026438;28;20471;-81
2020/12/24 08:06:45;;;;;;;6.10;3.67;;;4.00;99.90;;;;;;5014757;28;20584;-79
2020/12/24 08:09:15;;;;;;;4.80;3.07;;;4.00;99.90;;;;;;5017342;28;21156;-79
2020/12/24 08:11:53;;;;;;;3.90;3.27;;;4.00;99.90;;;;;;5031283;28;20509;-79
2020/12/24 08:14:22;;;;;;;5.17;2.80;;;4.00;99.90;;;;;;5022928;28;20486;-80
2020/12/24 08:16:50;;;;;;;4.80;3.23;;;4.00;99.90;;;;;;5023249;28;20477;-80
2020/12/24 08:19:29;;;;;;;4.83;3.30;;;4.00;99.90;;;;;;5008671;28;20490;-80
2020/12/24 08:22:04;;;;;;;4.50;3.00;;;4.00;99.90;;;;;;5023979;28;20485;-80
2020/12/24 08:24:33;;;;;;;6.53;3.17;;;4.00;99.90;;;;;;5024817;28;20504;-80
2020/12/24 08:27:02;;;;;;;5.97;3.23;;;4.00;99.90;;;;;;5021511;28;20568;-80
2020/12/24 08:29:31;;;;;;;5.87;3.50;;;4.10;99.90;;;;;;5029971;28;20483;-80
2020/12/24 08:32:03;;;;;;;5.90;3.50;;;4.10;99.90;;;;;;5013326;28;20891;-80
2020/12/24 08:34:30;;;;;;;7.60;3.70;;;4.10;99.90;;;;;;5031548;28;20794;-80
2020/12/24 08:36:58;;;;;;;5.47;3.10;;;4.10;99.90;;;;;;5031218;28;20537;-80
2020/12/24 08:39:30;;;;;;;4.80;3.20;;;4.20;99.90;;;;;;5031130;28;21008;-80
2020/12/24 08:42:00;;;;;;;7.73;3.40;;;4.20;99.90;;;;;;5030865;28;20471;-81
2020/12/24 08:44:27;;;;;;;9.07;4.80;;;4.20;99.90;;;;;;5013285;28;20968;-80
2020/12/24 08:47:03;;;;;;;6.87;4.63;;;4.30;99.90;;;;;;5031236;28;20496;-80
2020/12/24 08:49:32;;;;;;;8.27;4.23;;;4.50;99.90;;;;;;5030221;28;20469;-80
2020/12/24 08:52:11;;;;;;;5.53;4.40;;;4.40;99.90;;;;;;5029071;28;20492;-81
2020/12/24 08:54:39;;;;;;;8.93;4.00;;;4.40;99.90;;;;;;5024271;28;20502;-80
2020/12/24 08:57:11;;;;;;;7.33;4.30;;;4.40;99.90;;;;;;5029437;28;20493;-80
2020/12/24 08:59:39;;;;;;;6.87;4.17;;;4.40;99.90;;;;;;5030312;28;20869;-80
2020/12/24 09:02:07;;;;;;;7.07;4.20;;;4.60;99.90;;;;;;5030407;28;20240;-80
2020/12/24 09:04:34;;;;;;;7.77;4.70;;;4.60;99.90;;;;;;5030447;28;20475;-80
2020/12/24 09:07:01;;;;;;;8.77;5.13;;;4.70;99.90;;;;;;5030075;28;20512;-80
2020/12/24 09:09:30;;;;;;;6.77;4.40;;;4.70;99.90;;;;;;5030061;28;20861;-80
2020/12/24 09:12:12;;;;;;;9.10;4.97;;;4.60;99.90;;;;;;5030381;28;20476;-80
2020/12/24 09:14:39;;;;;;;11.30;6.10;;;4.60;99.90;;;;;;5012620;28;20482;-80
2020/12/24 09:17:08;;;;;;;9.27;5.80;;;4.70;99.90;;;;;;5030161;28;20483;-80
2020/12/24 09:19:36;;;;;;;10.00;5.10;;;4.70;99.90;;;;;;5021642;28;20488;-82
2020/12/24 09:22:04;;;;;;;9.73;5.30;;;4.70;99.90;;;;;;5017268;28;20486;-81
2020/12/24 09:24:33;;;;;;;9.77;5.80;;;4.80;99.90;;;;;;5011091;28;20487;-82
2020/12/24 09:27:01;;;;;;;11.13;5.73;;;5.00;99.90;;;;;;5024874;28;20573;-81
2020/12/24 09:29:29;;;;;;;11.70;7.00;;;5.10;99.90;;;;;;5022818;28;20499;-80
2020/12/24 09:31:58;;;;;;;10.27;6.27;;;4.90;99.90;;;;;;5010460;28;21282;-80
2020/12/24 09:34:27;;;;;;;9.00;5.97;;;4.90;99.90;;;;;;5010394;28;20571;-80
2020/12/24 09:36:54;;;;;;;11.77;7.47;;;5.00;99.90;;;;;;5008914;28;20476;-80
2020/12/24 09:39:23;;;;;;;12.97;6.90;;;5.30;99.90;;;;;;5019000;28;20488;-80
2020/12/24 09:41:51;;;;;;;12.10;6.50;;;5.30;99.90;;;;;;5025876;28;20545;-80
2020/12/24 09:44:19;;;;;;;9.70;6.20;;;5.20;99.90;;;;;;5021455;28;20516;-84
2020/12/24 09:46:48;;;;;;;13.23;6.87;;;5.10;99.90;;;;;;5015644;28;20510;-82
2020/12/24 09:49:16;;;;;;;11.20;6.80;;;5.10;99.90;;;;;;5018042;28;20555;-82
2020/12/24 09:51:48;;;;;;;13.83;7.20;;;5.20;99.90;;;;;;5018905;28;20990;-83
2020/12/24 09:54:33;;;;;;;13.77;7.40;;;5.20;99.90;;;;;;5027179;28;20490;-80
2020/12/24 09:57:01;;;;;;;12.97;7.23;;;5.10;99.90;;;;;;5028234;28;20479;-81
2020/12/24 09:59:29;;;;;;;15.80;8.77;;;5.10;99.90;;;;;;5026693;28;20532;-80
2020/12/24 10:01:56;;;;;;;13.70;8.03;;;5.10;99.90;;;;;;5019158;28;20510;-81
2020/12/24 10:04:25;;;;;;;17.87;9.33;;;5.20;99.90;;;;;;5017330;28;20478;-81
2020/12/24 10:06:53;;;;;;;19.07;8.83;;;5.20;99.90;;;;;;5030375;28;20873;-81
2020/12/24 10:09:20;;;;;;;16.40;9.07;;;5.20;99.90;;;;;;5220709;23;21030;-52
2020/12/24 10:11:48;;;;;;;16.03;10.13;;;5.20;99.90;;;;;;5022005;28;20505;-52
2020/12/24 10:14:16;;;;;;;15.63;10.13;;;5.10;99.90;;;;;;5019251;28;20573;-52
2020/12/24 10:16:44;;;;;;;17.93;10.10;;;5.10;99.90;;;;;;5015184;28;20515;-52
2020/12/24 10:19:11;;;;;;;15.80;9.83;;;5.10;99.90;;;;;;5016958;28;20486;-52
2020/12/24 10:21:40;;;;;;;17.27;9.97;;;5.10;99.90;;;;;;5027182;28;20568;-53
2020/12/24 10:24:16;;;;;;;14.87;9.93;;;5.10;99.90;;;;;;5028103;28;20481;-52
2020/12/24 10:26:44;;;;;;;16.27;10.10;;;5.20;99.90;;;;;;5028340;28;20490;-52
2020/12/24 10:29:11;;;;;;;19.80;10.23;;;5.20;99.90;;;;;;5027535;28;20525;-52
2020/12/24 10:31:55;;;;;;;18.00;10.29;;;5.20;99.90;;;;;;2536241;28;10004069;-52
2020/12/24 10:34:23;;;;;;;20.00;10.00;;;5.30;99.90;;;;;;3984707;28;10001469;-52
2020/12/24 10:36:50;;;;;;;20.10;10.37;;;5.30;99.90;;;;;;5027995;28;20484;-53
2020/12/24 10:39:17;;;;;;;19.13;10.73;;;5.30;99.90;;;;;;5027088;28;20895;-52
2020/12/24 10:41:49;;;;;;;18.57;10.00;;;5.40;99.90;;;;;;5026825;28;20844;-52
2020/12/24 10:44:17;;;;;;;19.67;10.10;;;5.30;99.90;;;;;;5028346;28;20980;-52
2020/12/24 10:46:45;;;;;;;19.57;10.83;;;5.40;99.90;;;;;;5027547;28;20482;-52
2020/12/24 10:49:14;;;;;;;21.33;10.30;;;5.40;99.90;;;;;;5026960;28;20934;-52
2020/12/24 10:51:41;;;;;;;19.77;10.03;;;5.40;99.90;;;;;;5026962;28;20487;-52
2020/12/24 10:54:08;;;;;;;20.23;10.57;;;5.40;99.90;;;;;;5023117;28;20474;-52
2020/12/24 10:56:35;;;;;;;17.40;9.40;;;5.40;99.90;;;;;;5008622;28;20567;-52
2020/12/24 10:59:03;;;;;;;16.60;9.13;;;5.40;99.90;;;;;;5013215;28;20485;-52
2020/12/24 11:01:30;;;;;;;16.47;8.63;;;5.40;99.90;;;;;;5025360;28;20499;-52
2020/12/24 11:03:58;;;;;;;20.00;9.00;;;5.40;99.90;;;;;;5023867;28;20859;-52
2020/12/24 11:06:33;;;;;;;15.80;8.23;;;5.50;99.90;;;;;;5018819;28;20475;-52
2020/12/24 11:09:01;;;;;;;18.13;7.90;;;5.40;99.90;;;;;;5021517;28;20496;-52
2020/12/24 11:11:34;;;;;;;16.90;8.37;;;5.40;99.90;;;;;;5005717;28;20479;-52
2020/12/24 11:14:02;;;;;;;15.00;8.60;;;5.40;99.90;;;;;;4996155;28;20479;-52
2020/12/24 11:16:31;;;;;;;14.43;7.13;;;5.50;99.90;;;;;;4986769;28;20476;-52
2020/12/24 11:19:00;;;;;;;17.03;7.47;;;5.40;99.90;;;;;;4987058;28;20494;-52
2020/12/24 11:21:32;;;;;;;12.80;7.07;;;5.50;99.90;;;;;;4986464;28;20477;-52
2020/12/24 11:24:05;;;;;;;13.90;7.23;;;5.50;99.90;;;;;;5004219;28;20484;-52
2020/12/24 11:26:34;;;;;;;14.50;6.70;;;5.40;99.90;;;;;;5005536;28;20870;-52
2020/12/24 11:29:05;;;;;;;16.80;8.07;;;5.40;99.90;;;;;;5007092;28;20537;-53
2020/12/24 11:31:36;;;;;;;14.03;6.80;;;5.40;99.90;;;;;;5009156;28;20489;-52
2020/12/24 11:34:05;;;;;;;12.70;5.87;;;5.40;99.90;;;;;;5010153;28;20476;-52
2020/12/24 11:36:35;;;;;;;11.17;5.97;;;5.40;99.90;;;;;;5009691;28;20511;-52
2020/12/24 11:39:06;;;;;;;12.83;5.77;;;5.40;99.90;;;;;;5008400;28;20502;-52
2020/12/24 11:41:34;;;;;;;17.70;5.50;;;5.40;99.90;;;;;;5008900;28;20468;-52
2020/12/24 11:44:02;;;;;;;12.97;5.03;;;5.40;99.90;;;;;;5010115;28;20970;-52
2020/12/24 11:46:30;;;;;;;13.33;4.80;;;5.50;99.90;;;;;;5009980;28;20493;-52
2020/12/24 11:48:57;;;;;;;10.03;4.53;;;5.50;99.90;;;;;;5008823;28;20539;-50
2020/12/24 11:51:26;;;;;;;9.23;3.70;;;5.50;99.90;;;;;;5008547;28;20566;-56
2020/12/24 11:53:55;;;;;;;9.00;3.70;;;5.40;99.90;;;;;;5009538;28;20530;-55
2020/12/24 11:56:23;;;;;;;7.50;3.43;;;5.30;99.90;;;;;;5009896;28;20479;-52
2020/12/24 11:58:52;;;;;;;9.67;3.57;;;5.30;99.90;;;;;;5009515;28;20482;-52
2020/12/24 12:01:22;;;;;;;8.30;3.30;;;5.20;99.90;;;;;;5008925;28;20570;-53
2020/12/24 12:03:52;;;;;;;8.03;3.13;;;5.20;99.90;;;;;;5008330;28;20484;-53
2020/12/24 12:06:20;;;;;;;8.77;3.30;;;5.50;99.90;;;;;;5010240;28;20480;-53
2020/12/24 12:08:48;;;;;;;7.47;3.47;;;5.90;99.90;;;;;;5008408;28;20945;-53
2020/12/24 12:11:18;;;;;;;5.07;2.70;;;5.90;99.90;;;;;;5008820;28;20887;-53
2020/12/24 12:13:47;;;;;;;12.23;3.20;;;5.80;99.90;;;;;;5010690;28;20485;-53
2020/12/24 12:16:14;;;;;;;10.57;3.20;;;5.80;99.90;;;;;;5009988;28;20480;-53
2020/12/24 12:18:42;;;;;;;5.07;2.77;;;5.80;99.90;;;;;;5009149;28;20508;-53
2020/12/24 12:21:12;;;;;;;7.77;2.70;;;5.80;99.90;;;;;;5010251;28;20851;-54
2020/12/24 12:23:39;;;;;;;7.43;2.40;;;5.80;99.90;;;;;;5010198;28;21001;-53
2020/12/24 12:26:10;;;;;;;5.13;2.27;;;5.80;99.90;;;;;;5010322;28;20569;-53
2020/12/24 12:28:41;;;;;;;5.90;1.93;;;5.80;99.90;;;;;;5010474;28;20480;-53
2020/12/24 12:31:16;;;;;;;8.33;2.07;;;5.80;99.90;;;;;;5009589;28;20490;-53
2020/12/24 12:33:43;;;;;;;6.00;1.77;;;5.80;99.90;;;;;;5010197;28;20823;-53
2020/12/24 12:36:11;;;;;;;8.40;1.90;;;5.70;99.90;;;;;;5010250;28;20899;-53
2020/12/24 12:38:38;;;;;;;6.67;1.80;;;5.80;99.90;;;;;;5007206;28;20564;-53
2020/12/24 12:41:06;;;;;;;7.10;1.80;;;5.80;99.90;;;;;;5008597;28;20488;-53
2020/12/24 12:43:33;;;;;;;4.63;1.63;;;5.80;99.90;;;;;;5009536;28;20746;-52
2020/12/24 12:46:02;;;;;;;4.80;1.50;;;5.90;99.90;;;;;;5009875;28;20476;-53
2020/12/24 12:48:29;;;;;;;4.77;1.40;;;5.90;99.90;;;;;;5009916;28;20541;-53
2020/12/24 12:50:56;;;;;;;8.63;2.30;;;5.90;99.90;;;;;;5009349;28;20477;-53
2020/12/24 12:53:24;;;;;;;5.57;1.87;;;5.90;99.90;;;;;;5010373;28;20500;-53
2020/12/24 12:55:51;;;;;;;5.37;1.53;;;5.90;99.90;;;;;;5009882;28;20255;-53
2020/12/24 12:58:18;;;;;;;5.80;1.60;;;6.00;99.90;;;;;;5009283;28;20480;-53
2020/12/24 13:00:46;;;;;;;6.57;1.87;;;5.90;99.90;;;;;;5008737;28;20495;-52
2020/12/24 13:03:15;;;;;;;4.93;1.30;;;5.90;99.90;;;;;;5008858;28;20480;-52
2020/12/24 13:05:42;;;;;;;4.47;1.37;;;5.80;99.90;;;;;;5010248;28;20648;-52
2020/12/24 13:08:09;;;;;;;3.80;1.43;;;5.80;99.90;;;;;;5009123;28;20503;-53